KYKN/YKN METAR and TAF weather

Enter ICAO airport designator
Station Type Date Time Source
KYKN METAR 2020/07/08 21:56 UTC NOAA

KYKN 082156Z AUTO 18013G20KT 10SM CLR 33/22 A2975 RMK AO2 SLP073 T03280222


Station Type Date Time Source
KYKN Decoded METAR 2020/07/08 21:56 UTC NOAA

Yankton, Chan Gurney Municipal Airport, SD, United States (KYKN) 42-55N 097-23W
Jul 08, 2020 - 05:56 PM EDT / 2020.07.08 2156 UTC
Wind: from the S (180 degrees) at 15 MPH (13 KT) gusting to 23 MPH (20 KT):0
Visibility: 10 mile(s):0
Sky conditions: clear
Temperature: 91.0 F (32.8 C)
Heat index: 98.1 F (36.7 C):1
Dew Point: 72.0 F (22.2 C)
Relative Humidity: 53%
Pressure (altimeter): 29.75 in. Hg (1007 hPa)
ob: KYKN 082156Z AUTO 18013G20KT 10SM CLR 33/22 A2975 RMK AO2 SLP073 T03280222
cycle: 22

Station Type Date Time Source
KYKN TAF UTC NOAA

Error!

Example: see airport list